PWSweather.com
Personal Weather Stations
Station Observations
KNJOAKLA6
Oakland, NJ 07436

Oakland, NJ 07436

Lat: 41.041, Lon: -74.231

Elevation: 280

Station Type: Davis VP 2

http://stratacolorado.com/oaknjwx/

Latest ConditionsUpdated 10:00:00 AM EDT Wednesday, Apr 23, 2014
Currently Today's Max Today's Min Today's Average
Temperature 49.1°F9.5°C 54.1°F12.3°C 46.5°F8.1°C 49.9°F9.9°C
Dew Point 39.0°F3.9°C 50.3°F10.2°C 36.0°F2.2°C 42.4°F5.8°C
Winds 5.0 mph WNW8.0 kmh WNW 11.0 mph NNW17.7 kmh NNW - 3.8 mph 6.1 kmh
Wind Gusts 15.0 mph24.1 kmh 24.0 mph38.6 kmh - -
Humidity 68% 93% 63% 76%
Pressure 29.58 in1001.7 mb 29.58 in1001.7 mb 29.47 in998.0 mb -
Hour Temp Dew Point Humidity Winds Wind Gusts Pressure Precip Precip Rate Daily Precip Total
10:00 AM 49.1°F9.5°C 39.0°F3.9°C 68% 5.0 mph WNW8.0 kmh WNW 15.0 mph24.1 kmh 29.58 in1001.7 mb 0.00 in0.0 mm 0.00 in/hr0.0 mm/hr 0.00 in0.0 mm
09:50 AM 48.9°F9.4°C 38.8°F3.8°C 68% 5.0 mph WNW8.0 kmh WNW 23.0 mph37.0 kmh 29.57 in1001.4 mb 0.00 in0.0 mm 0.00 in/hr0.0 mm/hr 0.00 in0.0 mm
09:40 AM 48.2°F9.0°C 38.1°F3.4°C 68% 8.0 mph NW12.9 kmh NW 19.0 mph30.6 kmh 29.58 in1001.7 mb 0.00 in0.0 mm 0.00 in/hr0.0 mm/hr 0.00 in0.0 mm
09:30 AM 48.5°F9.2°C 38.1°F3.4°C 67% 10.0 mph NW16.1 kmh NW 22.0 mph35.4 kmh 29.57 in1001.4 mb 0.00 in0.0 mm 0.00 in/hr0.0 mm/hr 0.00 in0.0 mm
09:20 AM 48.8°F9.3°C 38.0°F3.3°C 66% 4.0 mph NW6.4 kmh NW 18.0 mph29.0 kmh 29.57 in1001.4 mb 0.00 in0.0 mm 0.00 in/hr0.0 mm/hr 0.00 in0.0 mm
09:10 AM 49.1°F9.5°C 37.8°F3.2°C 65% 8.0 mph WNW12.9 kmh WNW 20.0 mph32.2 kmh 29.57 in1001.4 mb 0.00 in0.0 mm 0.00 in/hr0.0 mm/hr 0.00 in0.0 mm
09:00 AM 49.4°F9.7°C 37.3°F2.9°C 63% 11.0 mph NNW17.7 kmh NNW 19.0 mph30.6 kmh 29.57 in1001.4 mb 0.00 in0.0 mm 0.00 in/hr0.0 mm/hr 0.00 in0.0 mm
08:50 AM 49.0°F9.4°C 38.1°F3.4°C 66% 7.0 mph NW11.3 kmh NW 20.0 mph32.2 kmh 29.57 in1001.4 mb 0.00 in0.0 mm 0.00 in/hr0.0 mm/hr 0.00 in0.0 mm
08:40 AM 48.4°F9.1°C 37.2°F2.9°C 65% 11.0 mph NW17.7 kmh NW 24.0 mph38.6 kmh 29.56 in1001.0 mb 0.00 in0.0 mm 0.00 in/hr0.0 mm/hr 0.00 in0.0 mm
08:30 AM 48.4°F9.1°C 37.2°F2.9°C 65% 5.0 mph NW8.0 kmh NW 14.0 mph22.5 kmh 29.56 in1001.0 mb 0.00 in0.0 mm 0.00 in/hr0.0 mm/hr 0.00 in0.0 mm
08:20 AM 47.9°F8.8°C 36.7°F2.6°C 65% 7.0 mph NW11.3 kmh NW 22.0 mph35.4 kmh 29.55 in1000.7 mb 0.00 in0.0 mm 0.00 in/hr0.0 mm/hr 0.00 in0.0 mm
08:10 AM 47.6°F8.7°C 36.8°F2.7°C 66% 3.0 mph NW4.8 kmh NW 13.0 mph20.9 kmh 29.56 in1001.0 mb 0.00 in0.0 mm 0.00 in/hr0.0 mm/hr 0.00 in0.0 mm
08:00 AM 47.2°F8.4°C 36.8°F2.7°C 67% 5.0 mph WNW8.0 kmh WNW 14.0 mph22.5 kmh 29.55 in1000.7 mb 0.00 in0.0 mm 0.00 in/hr0.0 mm/hr 0.00 in0.0 mm
07:50 AM 47.0°F8.3°C 36.6°F2.6°C 67% 6.0 mph NW9.7 kmh NW 16.0 mph25.7 kmh 29.56 in1001.0 mb 0.00 in0.0 mm 0.00 in/hr0.0 mm/hr 0.00 in0.0 mm
07:30 AM 46.5°F8.1°C 36.1°F2.3°C 67% 7.0 mph NW11.3 kmh NW 21.0 mph33.8 kmh 29.56 in1001.0 mb 0.00 in0.0 mm 0.00 in/hr0.0 mm/hr 0.00 in0.0 mm
07:20 AM 46.5°F8.1°C 36.1°F2.3°C 67% 3.0 mph W4.8 kmh W 13.0 mph20.9 kmh 29.55 in1000.7 mb 0.00 in0.0 mm 0.00 in/hr0.0 mm/hr 0.00 in0.0 mm
07:10 AM 46.6°F8.1°C 36.2°F2.3°C 67% 3.0 mph NW4.8 kmh NW 11.0 mph17.7 kmh 29.55 in1000.7 mb 0.00 in0.0 mm 0.00 in/hr0.0 mm/hr 0.00 in0.0 mm
07:00 AM 46.8°F8.2°C 36.0°F2.2°C 66% 6.0 mph NW9.7 kmh NW 15.0 mph24.1 kmh 29.54 in1000.3 mb 0.00 in0.0 mm 0.00 in/hr0.0 mm/hr 0.00 in0.0 mm
06:50 AM 47.0°F8.3°C 36.2°F2.3°C 66% 7.0 mph NW11.3 kmh NW 19.0 mph30.6 kmh 29.54 in1000.3 mb 0.00 in0.0 mm 0.00 in/hr0.0 mm/hr 0.00 in0.0 mm
06:40 AM 47.2°F8.4°C 36.8°F2.7°C 67% 5.0 mph NW8.0 kmh NW 15.0 mph24.1 kmh 29.54 in1000.3 mb 0.00 in0.0 mm 0.00 in/hr0.0 mm/hr 0.00 in0.0 mm
06:30 AM 47.3°F8.5°C 36.9°F2.7°C 67% 5.0 mph NW8.0 kmh NW 14.0 mph22.5 kmh 29.53 in1000.0 mb 0.00 in0.0 mm 0.00 in/hr0.0 mm/hr 0.00 in0.0 mm
06:20 AM 47.4°F8.6°C 37.4°F3.0°C 68% 5.0 mph NNW8.0 kmh NNW 12.0 mph19.3 kmh 29.53 in1000.0 mb 0.00 in0.0 mm 0.00 in/hr0.0 mm/hr 0.00 in0.0 mm
06:10 AM 47.5°F8.6°C 37.5°F3.1°C 68% 6.0 mph NW9.7 kmh NW 20.0 mph32.2 kmh 29.53 in1000.0 mb 0.00 in0.0 mm 0.00 in/hr0.0 mm/hr 0.00 in0.0 mm
06:00 AM 47.6°F8.7°C 38.3°F3.5°C 70% 5.0 mph WNW8.0 kmh WNW 14.0 mph22.5 kmh 29.53 in1000.0 mb 0.00 in0.0 mm 0.00 in/hr0.0 mm/hr 0.00 in0.0 mm
05:50 AM 47.7°F8.7°C 39.5°F4.2°C 73% 6.0 mph NW9.7 kmh NW 12.0 mph19.3 kmh 29.53 in1000.0 mb 0.00 in0.0 mm 0.00 in/hr0.0 mm/hr 0.00 in0.0 mm
05:40 AM 47.9°F8.8°C 40.4°F4.7°C 75% 4.0 mph NW6.4 kmh NW 13.0 mph20.9 kmh 29.53 in1000.0 mb 0.00 in0.0 mm 0.00 in/hr0.0 mm/hr 0.00 in0.0 mm
05:30 AM 48.1°F8.9°C 41.2°F5.1°C 77% 2.0 mph W3.2 kmh W 11.0 mph17.7 kmh 29.53 in1000.0 mb 0.00 in0.0 mm 0.00 in/hr0.0 mm/hr 0.00 in0.0 mm
05:20 AM 48.4°F9.1°C 41.2°F5.1°C 76% 6.0 mph N9.7 kmh N 15.0 mph24.1 kmh 29.52 in999.7 mb 0.00 in0.0 mm 0.00 in/hr0.0 mm/hr 0.00 in0.0 mm
05:10 AM 48.8°F9.3°C 41.6°F5.3°C 76% 5.0 mph NW8.0 kmh NW 15.0 mph24.1 kmh 29.52 in999.7 mb 0.00 in0.0 mm 0.00 in/hr0.0 mm/hr 0.00 in0.0 mm
05:00 AM 49.6°F9.8°C 42.0°F5.6°C 75% 9.0 mph NW14.5 kmh NW 13.0 mph20.9 kmh 29.52 in999.7 mb 0.00 in0.0 mm 0.00 in/hr0.0 mm/hr 0.00 in0.0 mm
04:50 AM 50.3°F10.2°C 43.0°F6.1°C 76% 6.0 mph N9.7 kmh N 10.0 mph16.1 kmh 29.51 in999.3 mb 0.00 in0.0 mm 0.00 in/hr0.0 mm/hr 0.00 in0.0 mm
04:40 AM 50.7°F10.4°C 43.1°F6.2°C 75% 1.0 mph 1.6 kmh 14.0 mph22.5 kmh 29.51 in999.3 mb 0.00 in0.0 mm 0.00 in/hr0.0 mm/hr 0.00 in0.0 mm
04:30 AM 51.2°F10.7°C 43.6°F6.4°C 75% 2.0 mph NW3.2 kmh NW 15.0 mph24.1 kmh 29.51 in999.3 mb 0.00 in0.0 mm 0.00 in/hr0.0 mm/hr 0.00 in0.0 mm
04:20 AM 51.4°F10.8°C 44.1°F6.7°C 76% 1.0 mph NW1.6 kmh NW 13.0 mph20.9 kmh 29.50 in999.0 mb 0.00 in0.0 mm 0.00 in/hr0.0 mm/hr 0.00 in0.0 mm
04:10 AM 51.5°F10.8°C 44.5°F6.9°C 77% 3.0 mph WNW4.8 kmh WNW 10.0 mph16.1 kmh 29.50 in999.0 mb 0.00 in0.0 mm 0.00 in/hr0.0 mm/hr 0.00 in0.0 mm
04:00 AM 51.6°F10.9°C 44.6°F7.0°C 77% 1.0 mph W1.6 kmh W 6.0 mph9.7 kmh 29.49 in998.6 mb 0.00 in0.0 mm 0.00 in/hr0.0 mm/hr 0.00 in0.0 mm
03:50 AM 51.9°F11.1°C 44.6°F7.0°C 76% 2.0 mph NNW3.2 kmh NNW 10.0 mph16.1 kmh 29.49 in998.6 mb 0.00 in0.0 mm 0.00 in/hr0.0 mm/hr 0.00 in0.0 mm
03:40 AM 52.1°F11.2°C 44.8°F7.1°C 76% 3.0 mph N4.8 kmh N 10.0 mph16.1 kmh 29.48 in998.3 mb 0.00 in0.0 mm 0.00 in/hr0.0 mm/hr 0.00 in0.0 mm
03:30 AM 52.4°F11.3°C 45.1°F7.3°C 76% 3.0 mph NW4.8 kmh NW 8.0 mph12.9 kmh 29.48 in998.3 mb 0.00 in0.0 mm 0.00 in/hr0.0 mm/hr 0.00 in0.0 mm
03:20 AM 52.8°F11.6°C 45.5°F7.5°C 76% Calm Calm 4.0 mph6.4 kmh 29.49 in998.6 mb 0.00 in0.0 mm 0.00 in/hr0.0 mm/hr 0.00 in0.0 mm
03:10 AM 53.1°F11.7°C 46.1°F7.8°C 77% 1.0 mph N1.6 kmh N 4.0 mph6.4 kmh 29.49 in998.6 mb 0.00 in0.0 mm 0.00 in/hr0.0 mm/hr 0.00 in0.0 mm
03:00 AM 53.3°F11.8°C 46.6°F8.1°C 78% Calm Calm 5.0 mph8.0 kmh 29.48 in998.3 mb 0.00 in0.0 mm 0.00 in/hr0.0 mm/hr 0.00 in0.0 mm
02:50 AM 53.4°F11.9°C 46.7°F8.2°C 78% 1.0 mph WSW1.6 kmh WSW 12.0 mph19.3 kmh 29.48 in998.3 mb 0.00 in0.0 mm 0.00 in/hr0.0 mm/hr 0.00 in0.0 mm
02:40 AM 53.7°F12.1°C 47.0°F8.3°C 78% 1.0 mph NW1.6 kmh NW 12.0 mph19.3 kmh 29.48 in998.3 mb 0.00 in0.0 mm 0.00 in/hr0.0 mm/hr 0.00 in0.0 mm
02:30 AM 53.9°F12.2°C 47.2°F8.4°C 78% 3.0 mph NW4.8 kmh NW 14.0 mph22.5 kmh 29.48 in998.3 mb 0.00 in0.0 mm 0.00 in/hr0.0 mm/hr 0.00 in0.0 mm
02:20 AM 54.1°F12.3°C 47.7°F8.7°C 79% 3.0 mph NW4.8 kmh NW 15.0 mph24.1 kmh 29.47 in998.0 mb 0.00 in0.0 mm 0.00 in/hr0.0 mm/hr 0.00 in0.0 mm
02:10 AM 53.8°F12.1°C 48.1°F8.9°C 81% 3.0 mph N4.8 kmh N 22.0 mph35.4 kmh 29.47 in998.0 mb 0.00 in0.0 mm 0.00 in/hr0.0 mm/hr 0.00 in0.0 mm
02:00 AM 53.0°F11.7°C 49.5°F9.7°C 88% 3.0 mph N4.8 kmh N 14.0 mph22.5 kmh 29.48 in998.3 mb 0.00 in0.0 mm 0.00 in/hr0.0 mm/hr 0.00 in0.0 mm
01:50 AM 52.3°F11.3°C 50.3°F10.2°C 93% 4.0 mph N6.4 kmh N 12.0 mph19.3 kmh 29.48 in998.3 mb 0.00 in0.0 mm 0.00 in/hr0.0 mm/hr 0.00 in0.0 mm
01:40 AM 51.4°F10.8°C 49.4°F9.7°C 93% 1.0 mph N1.6 kmh N 7.0 mph11.3 kmh 29.48 in998.3 mb 0.00 in0.0 mm 0.00 in/hr0.0 mm/hr 0.00 in0.0 mm
01:30 AM 50.1°F10.1°C 48.2°F9.0°C 93% 4.0 mph W6.4 kmh W 11.0 mph17.7 kmh 29.48 in998.3 mb 0.00 in0.0 mm 0.00 in/hr0.0 mm/hr 0.00 in0.0 mm
01:20 AM 49.6°F9.8°C 47.1°F8.4°C 91% 2.0 mph NW3.2 kmh NW 11.0 mph17.7 kmh 29.48 in998.3 mb 0.00 in0.0 mm 0.00 in/hr0.0 mm/hr 0.00 in0.0 mm
01:10 AM 49.9°F9.9°C 47.4°F8.6°C 91% Calm Calm 1.0 mph1.6 kmh 29.48 in998.3 mb 0.00 in0.0 mm 0.00 in/hr0.0 mm/hr 0.00 in0.0 mm
01:00 AM 50.2°F10.1°C 47.4°F8.6°C 90% Calm Calm -- 29.48 in998.3 mb 0.00 in0.0 mm 0.00 in/hr0.0 mm/hr 0.00 in0.0 mm
12:50 AM 50.5°F10.3°C 47.7°F8.7°C 90% Calm Calm -- 29.48 in998.3 mb 0.00 in0.0 mm 0.00 in/hr0.0 mm/hr 0.00 in0.0 mm
12:40 AM 50.9°F10.5°C 48.1°F8.9°C 90% Calm Calm -- 29.48 in998.3 mb 0.00 in0.0 mm 0.00 in/hr0.0 mm/hr 0.00 in0.0 mm
12:30 AM 51.4°F10.8°C 48.3°F9.1°C 89% Calm Calm -- 29.48 in998.3 mb 0.00 in0.0 mm 0.00 in/hr0.0 mm/hr 0.00 in0.0 mm
12:20 AM 51.7°F10.9°C 48.6°F9.2°C 89% Calm Calm -- 29.48 in998.3 mb 0.00 in0.0 mm 0.00 in/hr0.0 mm/hr 0.00 in0.0 mm
12:10 AM 52.2°F11.2°C 49.1°F9.5°C 89% Calm Calm -- 29.48 in998.3 mb 0.00 in0.0 mm 0.00 in/hr0.0 mm/hr 0.00 in0.0 mm
12:00 AM 52.6°F11.4°C 49.2°F9.6°C 88% Calm Calm 1.0 mph1.6 kmh 29.48 in998.3 mb 0.00 in0.0 mm 0.00 in/hr0.0 mm/hr 0.01 in0.3 mm